Report METAR

 

LELL - Sabadell, Spain
Distance from station: E 18km
Dati ricevuti: 22/06/2021 22:00
Sereno
Sereno
 Vento da SE
Vento: SE 11 km/h
Temperatura: 29°C
Indice di Calore: 34°C
P.to Rugiada: 25°C
Umidità: 79%
Barometro: 1015 hPa
Summary: Sereno
Visibility: superiore a 10 km
2021/06/22 20:00 LELL 222000Z AUTO 13006KT CAVOK 29/25 Q1015
LEBL - Barcelona Airpor, Spain
Distance from station: SSE 33km
Dati ricevuti: 22/06/2021 22:00
Parz. nuvoloso
Parz. nuvoloso
 Vento da SE
Vento: SE 4 km/h
Temperatura: 22°C
P.to Rugiada: 19°C
Umidità: 83%
Barometro: 1015 hPa
Nuvole: Parz. nuvoloso
Visibility: 10 km
Cloud details: Few Clouds 457 m
Parz. nuvoloso 610 m
2021/06/22 20:00 LEBL 222000Z 14002KT 9999 FEW015 SCT020 22/19 Q1015 NOSIG
LERS - Reus (civ/Mil), Spain
Distance from station: SO 75km
Dati ricevuti: 22/06/2021 22:00
Few Clouds
Few Clouds
 Vento da SSE
Vento: SSE 6 km/h
Temperatura: 21°C
P.to Rugiada: 17°C
Umidità: 78%
Barometro: 1014 hPa
Nuvole: Few Clouds
Visibility: 10 km
Cloud details: Few Clouds 914 m
2021/06/22 20:00 LERS 222000Z 16003KT 9999 FEW030 21/17 Q1014
 
LEGE - Gerona/Costa Bra, Spain
Distance from station: ENE 83km
Dati ricevuti: 22/06/2021 22:00
Sereno
Sereno
 Vento da SSE
Vento: SSE 6 km/h
Temperatura: 20°C
P.to Rugiada: 15°C
Umidità: 73%
Barometro: 1015 hPa
Summary: Sereno
Visibility: superiore a 10 km
2021/06/22 20:00 LEGE 222000Z 15003KT 110V230 CAVOK 20/15 Q1015
LFMP - Perpignan/Rivesa, France
Distance from station: NNE 155km
Dati ricevuti: 22/06/2021 22:00
Coperto
Coperto
 Vento da ONO
Vento: ONO 20 km/h
Temperatura: 23°C
P.to Rugiada: 11°C
Umidità: 47%
Barometro: 1015 hPa
Nuvole: Coperto
Visibility: 10 km
Cloud details: Molto nuvoloso 1951 m
Coperto 2438 m
2021/06/22 20:00 LFMP 222000Z AUTO 30011KT 9999 BKN064 OVC080 23/11 Q1015 NOSIG
LFMK - Carcassonne/Salv, France
Distance from station: N 191km
Dati ricevuti: 22/06/2021 22:00
Coperto
Coperto
 Vento da O
Vento: O 17 km/h
Temperatura: 18°C
P.to Rugiada: 14°C
Umidità: 78%
Barometro: 1017 hPa
Nuvole: Coperto
Visibility: 10 km
Cloud details: Parz. nuvoloso 1829 m
Coperto 2256 m
2021/06/22 20:00 LFMK 222000Z AUTO 27009KT 9999 SCT060 OVC074 18/14 Q1017
 
LEHC - Huesca-Pirineos, Spain
Distance from station: ONO 193km
Dati ricevuti: 22/06/2021 22:00
Sereno
Sereno
 Vento da ONO
Vento: ONO 20 km/h
Temperatura: 18°C
P.to Rugiada: 9°C
Umidità: 56%
Barometro: 1016 hPa
Summary: Sereno
Visibility: superiore a 10 km
2021/06/22 20:00 LEHC 222000Z AUTO 29011KT 260V320 CAVOK 18/09 Q1016
LFMU - Beziers/Vias, France
Distance from station: NNE 232km
Dati ricevuti: 22/06/2021 22:00
Sereno
Sereno
 Vento da O
Vento: O 20 km/h
Temperatura: 24°C
P.to Rugiada: 12°C
Umidità: 47%
Barometro: 1015 hPa
Summary: Sereno
Visibility: superiore a 10 km
2021/06/22 20:00 LFMU 222000Z AUTO 28011KT CAVOK 24/12 Q1015 NOSIG
LEPA - Palma De Mallorc, Spain
Distance from station: SSE 233km
Dati ricevuti: 22/06/2021 22:00
Few Clouds
Few Clouds
 Vento da SSE
Vento: SSE 7 km/h
Temperatura: 25°C
P.to Rugiada: 19°C
Umidità: 69%
Barometro: 1013 hPa
Nuvole: Few Clouds
Visibility: 10 km
Cloud details: Few Clouds 1219 m
2021/06/22 20:00 LEPA 222000Z 16004KT 080V200 9999 FEW040 25/19 Q1013 NOSIG
 
LFBO - Toulouse/Blagnac, France
Distance from station: N 236km
Dati ricevuti: 22/06/2021 22:00
Temporale
Temporale
 Vento da OSO
Vento: OSO 13 km/h
Temperatura: 18°C
P.to Rugiada: 16°C
Umidità: 88%
Barometro: 1017 hPa
Nuvole: Temporale
Visibility: 10 km
Cloud details: Few Clouds 1067 m
Molto nuvoloso 2987 m
Coperto 3353 m
2021/06/22 20:00 LFBO 222000Z AUTO 25007KT 200V280 9999 FEW035/// BKN098/// OVC110/// ///TCU 18/16 Q1017 TEMPO 4000 SHRA
LFBT - Tarbes/Ossun, France
Distance from station: NO 239km
Dati ricevuti: 22/06/2021 22:00
Molto nuvoloso
Molto nuvoloso
 Vento da OSO
Vento: OSO 19 km/h
Temperatura: 15°C
P.to Rugiada: 13°C
Umidità: 88%
Barometro: 1019 hPa
Nuvole: Molto nuvoloso
Visibility: 10 km
Cloud details: Molto nuvoloso 518 m
Molto nuvoloso 1219 m
Molto nuvoloso 1433 m
2021/06/22 20:00 LFBT 222000Z AUTO 25010KT 9999 BKN017 BKN040 BKN047 15/13 Q1019 TEMPO 4000 SHRA BKN030TCU
LEZG - Zaragoza (mil/Ci, Spain
Distance from station: O 242km
Dati ricevuti: 22/06/2021 22:00
Parz. nuvoloso
Parz. nuvoloso
 Vento da ONO
Vento: ONO 31 km/h
Temperatura: 20°C
P.to Rugiada: 12°C
Umidità: 60%
Barometro: 1017 hPa
Nuvole: Parz. nuvoloso
Visibility: 10 km
Cloud details: Few Clouds 1829 m
Parz. nuvoloso 2438 m
2021/06/22 20:00 LEZG 222000Z 30017KT 9999 FEW060TCU SCT080 20/12 Q1017